Time;durP1;ratioP1;P1;durP2;ratioP2;P2;SDS_P1;SDS_P2;PMS_P1;PMS_P2;Temp;Humidity;BMP_temperature;BMP_pressure;BME280_temperature;BME280_humidity;BME280_pressure;Samples;Min_cycle;Max_cycle;Signal;HPM_P1;HPM_P2
2021/12/14 00:01:02;;;;;;;11.85;10.15;;;8.50;99.90;;;;;;4939183;29;20071;-66
2021/12/14 00:03:31;;;;;;;14.68;10.00;;;8.50;99.90;;;;;;4939161;28;20039;-66
2021/12/14 00:05:57;;;;;;;13.48;10.15;;;8.40;99.90;;;;;;4943481;29;20089;-66
2021/12/14 00:08:25;;;;;;;13.40;10.23;;;8.40;99.90;;;;;;4944824;28;20031;-66
2021/12/14 00:16:03;;;;;;;10.88;9.75;;;8.40;99.90;;;;;;4940000;28;20043;-66
2021/12/14 00:18:29;;;;;;;12.40;10.15;;;8.40;99.90;;;;;;4944146;28;20031;-66
2021/12/14 00:21:04;;;;;;;11.75;10.05;;;8.30;99.90;;;;;;4950405;28;20129;-66
2021/12/14 00:26:16;;;;;;;11.23;10.05;;;8.40;99.90;;;;;;4961418;28;20028;-66
2021/12/14 00:28:43;;;;;;;12.40;10.15;;;8.30;99.90;;;;;;4962023;28;20054;-66
2021/12/14 00:31:14;;;;;;;11.70;10.20;;;8.40;99.90;;;;;;4955796;28;20177;-66
2021/12/14 00:33:41;;;;;;;12.68;10.60;;;8.40;99.90;;;;;;4960884;28;20058;-66
2021/12/14 00:36:09;;;;;;;12.98;10.85;;;8.40;99.90;;;;;;4954751;28;20431;-66
2021/12/14 00:38:37;;;;;;;12.80;10.48;;;8.40;99.90;;;;;;4960715;28;20034;-66
2021/12/14 00:41:11;;;;;;;14.20;11.55;;;8.40;99.90;;;;;;4955815;28;20035;-66
2021/12/14 00:43:36;;;;;;;14.77;11.52;;;8.40;99.90;;;;;;4965236;28;20038;-66
2021/12/14 00:46:03;;;;;;;13.02;11.57;;;8.40;99.90;;;;;;4953031;28;20392;-66
2021/12/14 00:48:29;;;;;;;14.00;12.07;;;8.40;99.90;;;;;;4966362;28;20046;-66
2021/12/14 00:50:58;;;;;;;17.45;12.05;;;8.40;99.90;;;;;;4961686;28;20047;-66
2021/12/14 00:53:26;;;;;;;14.93;12.32;;;8.40;99.90;;;;;;4964739;28;20574;-66
2021/12/14 00:55:53;;;;;;;14.90;12.88;;;8.40;99.90;;;;;;4937465;28;20105;-65
2021/12/14 00:58:20;;;;;;;16.05;12.43;;;8.40;99.90;;;;;;4949347;28;20039;-65
2021/12/14 01:00:52;;;;;;;15.02;12.77;;;8.40;99.90;;;;;;4962744;28;20031;-66
2021/12/14 01:03:18;;;;;;;17.25;13.45;;;8.40;99.90;;;;;;4963416;28;20072;-66
2021/12/14 01:05:48;;;;;;;19.63;13.65;;;8.40;99.90;;;;;;4957719;28;20043;-66
2021/12/14 01:08:18;;;;;;;15.77;12.68;;;8.50;99.90;;;;;;4964596;28;20517;-66
2021/12/14 01:11:02;;;;;;;14.18;12.68;;;8.40;99.90;;;;;;4962752;28;20048;-66
2021/12/14 01:13:31;;;;;;;15.68;13.02;;;8.40;99.90;;;;;;4961215;28;20031;-66
2021/12/14 01:16:16;;;;;;;18.10;14.38;;;8.40;99.90;;;;;;4963430;28;20035;-65
2021/12/14 01:19:12;;;;;;;16.98;13.88;;;8.50;99.90;;;;;;4966164;28;20295;-66
2021/12/14 01:27:16;;;;;;;17.13;13.43;;;8.40;99.90;;;;;;4955624;28;20043;-66
2021/12/14 01:29:47;;;;;;;17.85;14.27;;;8.40;99.90;;;;;;4964267;28;20138;-65
2021/12/14 01:32:13;;;;;;;17.17;15.35;;;8.50;99.90;;;;;;4954708;28;20034;-66
2021/12/14 01:34:39;;;;;;;16.42;14.38;;;8.50;99.90;;;;;;4964289;28;20117;-65
2021/12/14 01:37:17;;;;;;;15.48;13.90;;;8.50;99.90;;;;;;4937048;28;20035;-65
2021/12/14 01:40:06;;;;;;;18.73;15.02;;;8.40;99.90;;;;;;4962746;28;20035;-65
2021/12/14 01:42:40;;;;;;;19.08;14.60;;;8.40;99.90;;;;;;4959803;28;20397;-65
2021/12/14 01:45:20;;;;;;;19.70;16.05;;;8.40;99.90;;;;;;4963616;28;20114;-65
2021/12/14 01:47:52;;;;;;;17.90;15.85;;;8.40;99.90;;;;;;4936370;28;20054;-66
2021/12/14 01:50:32;;;;;;;18.35;14.63;;;8.40;99.90;;;;;;4964262;28;20109;-65
2021/12/14 01:52:59;;;;;;;18.08;15.48;;;8.40;99.90;;;;;;4951906;28;20047;-65
2021/12/14 01:55:30;;;;;;;17.50;15.60;;;8.40;99.90;;;;;;4963070;28;20042;-65
2021/12/14 01:57:59;;;;;;;17.50;15.70;;;8.50;99.90;;;;;;4958019;28;20049;-66
2021/12/14 02:00:51;;;;;;;16.85;15.05;;;8.40;99.90;;;;;;4944193;28;20122;-66
2021/12/14 02:03:17;;;;;;;16.00;14.27;;;8.40;99.90;;;;;;4955947;28;20042;-65
2021/12/14 02:05:49;;;;;;;18.55;16.17;;;8.40;99.90;;;;;;4964573;28;20408;-65
2021/12/14 02:08:23;;;;;;;17.20;15.07;;;8.40;99.90;;;;;;4940823;28;20050;-65
2021/12/14 02:10:50;;;;;;;20.70;15.95;;;8.40;99.90;;;;;;4958121;28;20047;-65
2021/12/14 02:13:29;;;;;;;18.23;15.90;;;8.50;99.90;;;;;;4958704;28;20035;-65
2021/12/14 02:15:56;;;;;;;19.05;16.52;;;8.50;99.90;;;;;;4942778;28;20057;-65
2021/12/14 02:18:23;;;;;;;18.30;16.30;;;8.50;99.90;;;;;;4963783;28;20050;-65
2021/12/14 02:21:10;;;;;;;19.10;15.98;;;8.50;99.90;;;;;;4954347;28;20052;-65
2021/12/14 02:23:41;;;;;;;21.60;16.42;;;8.50;99.90;;;;;;4959625;28;20531;-65
2021/12/14 02:26:12;;;;;;;19.90;16.88;;;8.40;99.90;;;;;;4958011;28;20047;-65
2021/12/14 02:28:38;;;;;;;19.75;16.10;;;8.40;99.90;;;;;;4963960;28;20039;-65
2021/12/14 02:31:07;;;;;;;19.30;16.42;;;8.50;99.90;;;;;;4955788;28;20046;-65
2021/12/14 02:33:36;;;;;;;19.58;16.70;;;8.40;99.90;;;;;;4957849;28;20035;-65
2021/12/14 02:36:07;;;;;;;19.92;16.85;;;8.50;99.90;;;;;;4956202;28;20068;-65
2021/12/14 02:38:32;;;;;;;20.65;16.70;;;8.50;99.90;;;;;;4960087;28;20058;-65
2021/12/14 02:41:05;;;;;;;19.02;16.27;;;8.50;99.90;;;;;;4935621;28;20492;-65
2021/12/14 02:43:41;;;;;;;19.40;16.77;;;8.40;99.90;;;;;;4963345;28;20050;-65
2021/12/14 02:46:14;;;;;;;19.65;17.40;;;8.40;99.90;;;;;;4953565;28;20039;-65
2021/12/14 02:48:43;;;;;;;22.95;18.90;;;8.50;99.90;;;;;;4962502;28;20545;-65
2021/12/14 02:51:17;;;;;;;22.50;17.92;;;8.50;99.90;;;;;;4954749;28;20042;-65
2021/12/14 02:53:47;;;;;;;19.98;17.15;;;8.40;99.90;;;;;;4947594;28;20079;-65
2021/12/14 02:56:18;;;;;;;23.40;18.63;;;8.50;99.90;;;;;;4955387;28;20038;-65
2021/12/14 02:58:46;;;;;;;21.58;17.20;;;8.50;99.90;;;;;;4961514;28;20058;-65
2021/12/14 03:01:12;;;;;;;22.77;18.52;;;8.40;99.90;;;;;;4941484;28;20047;-65
2021/12/14 03:03:39;;;;;;;22.38;18.77;;;8.50;99.90;;;;;;4948463;28;20047;-65
2021/12/14 03:06:09;;;;;;;21.58;18.00;;;8.50;99.90;;;;;;4957630;28;20030;-65
2021/12/14 03:08:43;;;;;;;22.55;19.52;;;8.50;99.90;;;;;;4959364;28;20118;-65
2021/12/14 03:11:10;;;;;;;25.15;20.73;;;8.50;99.90;;;;;;4957322;28;20034;-65
2021/12/14 03:13:44;;;;;;;23.60;19.83;;;8.40;99.90;;;;;;4966186;28;20105;-65
2021/12/14 03:16:19;;;;;;;26.02;19.20;;;8.40;99.90;;;;;;4937740;28;20073;-65
2021/12/14 03:18:49;;;;;;;27.60;21.17;;;8.40;99.90;;;;;;4965190;28;20504;-65
2021/12/14 03:21:18;;;;;;;25.83;21.02;;;8.40;99.90;;;;;;4956179;28;20515;-65
2021/12/14 03:23:51;;;;;;;25.73;22.02;;;8.40;99.90;;;;;;4958329;28;20059;-65
2021/12/14 03:26:22;;;;;;;27.55;21.70;;;8.40;99.90;;;;;;4958755;28;20031;-65
2021/12/14 03:28:50;;;;;;;26.15;20.05;;;8.40;99.90;;;;;;4960127;28;20488;-65
2021/12/14 03:31:27;;;;;;;27.70;21.70;;;8.50;99.90;;;;;;4966798;28;20041;-65
2021/12/14 03:34:02;;;;;;;25.88;22.00;;;8.40;99.90;;;;;;4961622;28;20041;-65
2021/12/14 03:36:32;;;;;;;28.00;22.48;;;8.40;99.90;;;;;;4966917;28;20058;-65
2021/12/14 03:39:10;;;;;;;27.83;22.38;;;8.40;99.90;;;;;;4959979;28;20062;-65
2021/12/14 03:41:47;;;;;;;30.08;22.73;;;8.40;99.90;;;;;;4950436;28;20077;-65
2021/12/14 03:44:18;;;;;;;27.80;22.90;;;8.30;99.90;;;;;;4962567;28;20062;-65
2021/12/14 03:47:02;;;;;;;28.95;23.23;;;8.40;99.90;;;;;;4963343;28;20122;-65
2021/12/14 03:49:33;;;;;;;27.60;22.88;;;8.40;99.90;;;;;;4964887;28;20388;-65
2021/12/14 03:51:59;;;;;;;30.70;23.75;;;8.40;99.90;;;;;;4963738;28;20043;-65
2021/12/14 03:54:27;;;;;;;28.73;23.45;;;8.30;99.90;;;;;;4943476;28;20046;-65
2021/12/14 03:56:53;;;;;;;31.55;24.92;;;8.30;99.90;;;;;;4960381;28;20047;-65
2021/12/14 03:59:19;;;;;;;27.85;23.05;;;8.30;99.90;;;;;;4958082;28;20063;-65
2021/12/14 04:01:48;;;;;;;27.25;23.65;;;8.40;99.90;;;;;;4947752;28;20047;-65
2021/12/14 04:04:50;;;;;;;32.20;24.10;;;8.30;99.90;;;;;;4955581;28;20043;-65
2021/12/14 04:07:17;;;;;;;28.13;23.20;;;8.30;99.90;;;;;;4968503;28;20395;-65
2021/12/14 04:09:44;;;;;;;30.10;23.75;;;8.30;99.90;;;;;;4957032;28;20047;-65
2021/12/14 04:12:16;;;;;;;30.38;25.20;;;8.30;99.90;;;;;;4965184;28;20037;-65
2021/12/14 04:14:48;;;;;;;31.77;25.20;;;8.30;99.90;;;;;;4960276;28;20484;-65
2021/12/14 04:17:15;;;;;;;32.20;25.00;;;8.30;99.90;;;;;;4966989;28;20507;-65
2021/12/14 04:19:42;;;;;;;32.08;25.33;;;8.30;99.90;;;;;;4956861;28;20050;-65
2021/12/14 04:22:14;;;;;;;32.83;26.30;;;8.20;99.90;;;;;;4960961;28;20057;-65
2021/12/14 04:24:44;;;;;;;29.88;24.70;;;8.20;99.90;;;;;;4956121;28;20131;-65
2021/12/14 04:27:18;;;;;;;35.15;26.77;;;8.20;99.90;;;;;;4963771;28;20145;-65
2021/12/14 04:29:44;;;;;;;32.22;25.42;;;8.20;99.90;;;;;;4958405;28;20050;-65
2021/12/14 04:32:12;;;;;;;31.20;24.77;;;8.20;99.90;;;;;;4965099;28;20050;-64
2021/12/14 04:34:41;;;;;;;30.00;23.98;;;8.30;99.90;;;;;;4958158;28;20059;-65
2021/12/14 04:37:07;;;;;;;30.10;25.33;;;8.20;99.90;;;;;;4964476;28;20507;-65
2021/12/14 04:39:46;;;;;;;32.40;26.95;;;8.20;99.90;;;;;;4958273;28;20049;-65
2021/12/14 04:53:21;;;;;;;32.30;26.55;;;8.10;99.90;;;;;;4964863;28;20451;-64
2021/12/14 04:55:48;;;;;;;31.85;25.88;;;8.10;99.90;;;;;;4956261;28;20039;-65
2021/12/14 04:58:14;;;;;;;34.22;27.65;;;8.10;99.90;;;;;;4962620;28;20653;-65
2021/12/14 05:00:45;;;;;;;35.13;27.80;;;8.10;99.90;;;;;;4956292;28;20364;-65
2021/12/14 05:03:15;;;;;;;34.40;27.77;;;8.20;99.90;;;;;;4961803;28;20149;-65
2021/12/14 05:05:48;;;;;;;34.40;27.23;;;8.20;99.90;;;;;;4958378;28;20460;-64
2021/12/14 05:11:03;;;;;;;31.95;26.60;;;8.20;99.90;;;;;;4957019;28;20122;-64
2021/12/14 05:13:39;;;;;;;33.85;27.42;;;8.20;99.90;;;;;;4964590;28;20042;-64
2021/12/14 05:16:05;;;;;;;32.55;27.85;;;8.20;99.90;;;;;;4957132;28;20035;-65
2021/12/14 05:18:31;;;;;;;33.95;27.65;;;8.20;99.90;;;;;;4962511;28;20081;-65
2021/12/14 05:20:58;;;;;;;35.17;28.35;;;8.20;99.90;;;;;;4956875;28;20152;-65
2021/12/14 05:23:29;;;;;;;33.72;28.25;;;8.20;99.90;;;;;;4966440;28;20058;-65
2021/12/14 05:25:56;;;;;;;37.03;29.50;;;8.10;99.90;;;;;;4955272;28;20047;-65
2021/12/14 05:28:23;;;;;;;34.88;28.77;;;8.10;99.90;;;;;;4967577;28;20035;-65
2021/12/14 05:30:53;;;;;;;38.72;29.42;;;8.20;99.90;;;;;;4958738;28;20038;-65
2021/12/14 05:33:28;;;;;;;38.58;30.27;;;8.20;99.90;;;;;;4945999;28;20043;-65
2021/12/14 05:35:58;;;;;;;39.08;30.92;;;8.20;99.90;;;;;;4965750;28;20573;-65
2021/12/14 05:38:41;;;;;;;37.35;30.08;;;8.20;99.90;;;;;;4957134;28;20038;-65
2021/12/14 05:43:05;;;;;;;40.28;30.10;;;8.20;99.90;;;;;;4960226;28;20035;-65
2021/12/14 05:43:55;;;;;;;36.95;30.23;;;8.10;99.90;;;;;;4963036;28;20131;-65
2021/12/14 05:46:22;;;;;;;36.70;30.08;;;8.10;99.90;;;;;;4962992;28;20117;-65
2021/12/14 05:48:48;;;;;;;41.30;29.92;;;8.10;99.90;;;;;;4954418;28;20105;-65
2021/12/14 05:51:14;;;;;;;36.47;30.77;;;8.10;99.90;;;;;;4960932;28;20031;-65
2021/12/14 05:53:44;;;;;;;38.55;31.05;;;8.10;99.90;;;;;;4957028;28;20078;-65
2021/12/14 05:56:14;;;;;;;37.92;30.98;;;8.10;99.90;;;;;;4944209;28;20240;-65
2021/12/14 05:58:41;;;;;;;36.83;31.08;;;8.10;99.90;;;;;;4955227;28;20043;-65
2021/12/14 06:01:09;;;;;;;39.67;32.08;;;8.10;99.90;;;;;;4963644;28;20042;-65
2021/12/14 06:03:42;;;;;;;38.50;31.27;;;8.10;99.90;;;;;;4956864;28;20050;-65
2021/12/14 06:06:20;;;;;;;39.65;31.13;;;8.10;99.90;;;;;;4956505;28;20488;-65
2021/12/14 06:08:47;;;;;;;38.42;31.30;;;8.10;99.90;;;;;;4954365;28;20492;-65
2021/12/14 06:11:25;;;;;;;41.63;32.33;;;8.10;99.90;;;;;;4963883;28;20031;-65
2021/12/14 06:13:51;;;;;;;40.33;31.38;;;8.10;99.90;;;;;;4935192;28;20050;-65
2021/12/14 06:16:32;;;;;;;38.83;33.08;;;8.10;99.90;;;;;;4945117;28;20055;-65
2021/12/14 06:19:22;;;;;;;38.20;32.47;;;8.10;99.90;;;;;;4954643;28;20077;-65
2021/12/14 06:21:52;;;;;;;40.67;32.47;;;8.10;99.90;;;;;;4958920;28;20090;-65
2021/12/14 06:24:18;;;;;;;39.72;32.15;;;8.10;99.90;;;;;;4954418;28;20097;-65
2021/12/14 06:26:50;;;;;;;40.10;33.75;;;8.20;99.90;;;;;;4960868;28;20425;-65
2021/12/14 06:29:22;;;;;;;41.58;34.00;;;8.20;99.90;;;;;;4958499;28;20043;-65
2021/12/14 06:31:49;;;;;;;42.15;33.70;;;8.20;99.90;;;;;;4959339;28;20098;-65
2021/12/14 06:34:26;;;;;;;43.55;34.28;;;8.20;99.90;;;;;;4936949;28;20039;-65
2021/12/14 06:37:03;;;;;;;44.38;33.65;;;8.20;99.90;;;;;;4962872;28;20035;-65
2021/12/14 06:39:30;;;;;;;46.70;35.58;;;8.20;99.90;;;;;;4955399;28;20065;-65
2021/12/14 06:42:07;;;;;;;43.45;35.38;;;8.10;99.90;;;;;;4961074;28;20440;-65
2021/12/14 06:44:32;;;;;;;46.03;36.00;;;8.20;99.90;;;;;;4956639;28;20051;-65
2021/12/14 06:46:59;;;;;;;47.20;35.97;;;8.20;99.90;;;;;;4965395;28;20458;-65
2021/12/14 06:49:25;;;;;;;44.08;34.75;;;8.10;99.90;;;;;;4952004;28;20463;-65
2021/12/14 06:51:57;;;;;;;46.30;36.38;;;8.20;99.90;;;;;;4962310;28;20043;-65
2021/12/14 06:54:26;;;;;;;48.15;36.25;;;8.20;99.90;;;;;;4950843;28;20031;-65
2021/12/14 06:56:59;;;;;;;47.05;37.03;;;8.20;99.90;;;;;;4964023;28;20043;-65
2021/12/14 06:59:26;;;;;;;46.22;37.03;;;8.10;99.90;;;;;;4940952;28;20137;-65
2021/12/14 07:01:58;;;;;;;44.80;35.65;;;8.10;99.90;;;;;;4959288;28;20157;-65
2021/12/14 07:04:27;;;;;;;44.72;35.97;;;8.10;99.90;;;;;;4968013;28;20490;-65
2021/12/14 07:07:05;;;;;;;48.13;37.95;;;8.20;99.90;;;;;;4959230;28;20717;-65
2021/12/14 07:09:44;;;;;;;47.13;37.15;;;8.20;99.90;;;;;;4966212;28;20386;-65
2021/12/14 07:12:14;;;;;;;48.70;39.05;;;8.20;99.90;;;;;;4958375;28;20092;-65
2021/12/14 07:14:49;;;;;;;44.45;35.92;;;8.20;99.90;;;;;;4963679;28;20101;-65
2021/12/14 07:17:26;;;;;;;48.03;37.28;;;8.20;99.90;;;;;;4942626;28;20051;-65
2021/12/14 07:20:04;;;;;;;43.50;35.60;;;8.20;99.90;;;;;;4949689;28;20059;-65
2021/12/14 07:22:44;;;;;;;45.50;36.72;;;8.20;99.90;;;;;;4961606;28;20051;-65
2021/12/14 07:25:40;;;;;;;45.40;36.05;;;8.20;99.90;;;;;;4968392;28;20130;-65
2021/12/14 07:28:17;;;;;;;43.67;35.67;;;8.20;99.90;;;;;;4950509;28;20059;-65
2021/12/14 07:30:50;;;;;;;43.38;36.67;;;8.20;99.90;;;;;;4956786;28;20047;-65
2021/12/14 07:33:32;;;;;;;46.35;38.38;;;8.20;99.90;;;;;;4948149;28;20181;-65
2021/12/14 07:36:05;;;;;;;47.60;38.70;;;8.20;99.90;;;;;;4956720;28;20047;-65
2021/12/14 07:38:44;;;;;;;48.20;38.03;;;8.30;99.90;;;;;;4967192;28;20467;-65
2021/12/14 07:41:22;;;;;;;45.70;38.45;;;8.30;99.90;;;;;;4960280;28;20097;-65
2021/12/14 07:44:37;;;;;;;50.03;38.35;;;8.30;99.90;;;;;;4964644;28;20054;-65
2021/12/14 07:47:07;;;;;;;51.72;40.22;;;8.30;99.90;;;;;;4948247;28;20043;-65
2021/12/14 07:49:44;;;;;;;50.42;39.70;;;8.30;99.90;;;;;;4954990;28;20066;-65
2021/12/14 07:52:14;;;;;;;51.15;40.03;;;8.30;99.90;;;;;;4961016;28;20034;-65
2021/12/14 07:54:48;;;;;;;56.40;39.60;;;8.30;99.90;;;;;;4945255;28;20157;-65
2021/12/14 07:57:20;;;;;;;50.20;39.97;;;8.20;99.90;;;;;;4955570;28;20038;-65
2021/12/14 08:00:09;;;;;;;54.05;39.50;;;8.20;99.90;;;;;;4966761;28;20049;-65
2021/12/14 08:02:41;;;;;;;57.90;41.95;;;8.20;99.90;;;;;;4950319;28;20047;-65
2021/12/14 08:05:27;;;;;;;55.45;42.00;;;8.20;99.90;;;;;;4964650;28;20183;-65
2021/12/14 08:08:15;;;;;;;60.88;40.88;;;8.20;99.90;;;;;;4955640;28;20058;-65
2021/12/14 08:10:57;;;;;;;58.25;42.10;;;8.20;99.90;;;;;;4961613;28;20061;-65
2021/12/14 08:13:25;;;;;;;56.42;41.78;;;8.20;99.90;;;;;;4957536;28;20051;-65
2021/12/14 08:15:54;;;;;;;58.55;42.40;;;8.30;99.90;;;;;;4959616;28;20455;-66
2021/12/14 08:18:22;;;;;;;54.75;41.17;;;8.30;99.90;;;;;;4966602;28;20041;-65
2021/12/14 08:20:57;;;;;;;56.00;41.85;;;8.20;99.90;;;;;;4961078;28;20059;-65
2021/12/14 08:23:49;;;;;;;56.88;40.90;;;8.20;99.90;;;;;;4956501;28;20753;-65
2021/12/14 08:26:21;;;;;;;53.58;40.78;;;8.30;99.90;;;;;;4961221;28;20046;-65
2021/12/14 08:28:57;;;;;;;56.80;42.17;;;8.30;99.90;;;;;;4953588;28;20039;-66
2021/12/14 08:31:30;;;;;;;59.22;41.85;;;8.30;99.90;;;;;;4948191;28;20155;-66
2021/12/14 08:34:12;;;;;;;53.72;41.28;;;8.30;99.90;;;;;;4958499;28;20039;-66
2021/12/14 08:36:47;;;;;;;51.28;39.90;;;8.30;99.90;;;;;;4950695;28;20047;-66
2021/12/14 08:39:20;;;;;;;56.38;41.83;;;8.30;99.90;;;;;;4959858;28;20046;-66
2021/12/14 08:41:52;;;;;;;54.58;41.13;;;8.40;99.90;;;;;;4942794;28;20055;-66
2021/12/14 08:44:34;;;;;;;51.30;40.90;;;8.40;99.90;;;;;;4957228;28;20062;-66
2021/12/14 08:47:00;;;;;;;53.55;40.42;;;8.40;99.90;;;;;;4958435;28;20035;-65
2021/12/14 08:49:26;;;;;;;51.17;40.47;;;8.40;99.90;;;;;;4938264;28;20050;-66
2021/12/14 08:51:51;;;;;;;52.20;39.88;;;8.50;99.90;;;;;;4950532;28;20411;-66
2021/12/14 08:54:26;;;;;;;49.50;39.38;;;8.50;99.90;;;;;;4945955;28;20038;-66
2021/12/14 08:57:00;;;;;;;;;;;8.50;99.90;;;;;;4959780;28;20043;-66
2021/12/14 08:59:27;;;;;;;46.65;36.85;;;8.40;99.90;;;;;;4956379;28;19922;-66
2021/12/14 09:01:57;;;;;;;49.38;37.53;;;8.40;99.90;;;;;;4966332;28;20038;-66
2021/12/14 09:04:31;;;;;;;48.85;39.60;;;8.50;99.90;;;;;;4961742;28;20071;-66
2021/12/14 09:07:06;;;;;;;50.33;39.15;;;8.50;99.90;;;;;;4958140;28;20039;-66
2021/12/14 09:09:33;;;;;;;48.85;38.38;;;8.50;99.90;;;;;;4958949;28;20066;-66
2021/12/14 09:12:15;;;;;;;47.03;37.08;;;8.50;99.90;;;;;;4941415;28;20042;-66
2021/12/14 09:14:42;;;;;;;46.25;36.38;;;8.50;99.90;;;;;;4958580;28;20145;-66
2021/12/14 09:17:10;;;;;;;46.45;38.08;;;8.60;99.90;;;;;;4955198;28;20075;-66
2021/12/14 09:19:41;;;;;;;45.67;36.30;;;8.50;99.90;;;;;;4962804;28;20043;-66
2021/12/14 09:22:13;;;;;;;49.97;37.60;;;8.60;99.90;;;;;;4934059;28;20138;-66
2021/12/14 09:24:41;;;;;;;46.97;38.60;;;8.60;99.90;;;;;;4945330;28;20376;-66
2021/12/14 09:27:10;;;;;;;47.97;38.47;;;8.60;99.90;;;;;;4943450;28;20058;-66
2021/12/14 09:29:37;;;;;;;50.58;37.70;;;8.60;99.90;;;;;;4963467;28;20530;-66
2021/12/14 09:32:07;;;;;;;44.70;38.28;;;8.60;99.90;;;;;;4957507;28;20069;-66
2021/12/14 09:34:36;;;;;;;47.17;36.83;;;8.60;99.90;;;;;;4957866;28;20095;-66
2021/12/14 09:37:07;;;;;;;45.75;37.72;;;8.60;99.90;;;;;;4956077;28;20038;-66
2021/12/14 09:39:36;;;;;;;43.50;36.55;;;8.70;99.90;;;;;;4947274;28;20047;-66
2021/12/14 09:42:07;;;;;;;47.95;38.03;;;8.70;99.90;;;;;;4955734;28;20047;-66
2021/12/14 09:44:35;;;;;;;47.88;37.67;;;8.70;99.90;;;;;;4961155;28;20042;-66
2021/12/14 09:47:12;;;;;;;46.28;38.08;;;8.70;99.90;;;;;;4954686;28;20097;-66
2021/12/14 09:49:40;;;;;;;48.00;37.42;;;8.70;99.90;;;;;;4961806;28;20083;-66
2021/12/14 09:52:11;;;;;;;51.72;38.92;;;8.80;99.90;;;;;;4951673;28;20043;-66
2021/12/14 09:54:37;;;;;;;48.42;37.80;;;8.80;99.90;;;;;;4958706;28;20447;-66
2021/12/14 09:57:13;;;;;;;48.03;36.10;;;8.80;99.90;;;;;;4962261;28;20038;-66
2021/12/14 09:59:40;;;;;;;48.00;37.20;;;8.70;99.90;;;;;;4959555;28;20511;-66
2021/12/14 10:02:30;;;;;;;45.92;36.38;;;8.80;99.90;;;;;;4958638;28;20117;-66
2021/12/14 10:05:00;;;;;;;45.20;34.78;;;8.80;99.90;;;;;;4961177;28;20070;-66
2021/12/14 10:07:26;;;;;;;45.80;34.17;;;8.80;99.90;;;;;;4955358;28;20050;-66
2021/12/14 10:09:57;;;;;;;46.70;34.35;;;8.80;99.90;;;;;;4961157;28;20134;-66
2021/12/14 10:12:51;;;;;;;44.58;34.63;;;8.90;99.90;;;;;;4956674;28;20047;-66
2021/12/14 10:15:20;;;;;;;45.83;34.35;;;8.90;99.90;;;;;;4958837;28;20439;-66
2021/12/14 10:17:47;;;;;;;44.20;34.17;;;8.80;99.90;;;;;;4940672;28;20088;-66
2021/12/14 10:20:17;;;;;;;42.22;32.60;;;8.90;99.90;;;;;;4955744;28;20204;-66
2021/12/14 10:22:44;;;;;;;41.63;32.03;;;8.90;99.90;;;;;;4955062;28;20050;-66
2021/12/14 10:25:16;;;;;;;39.90;31.95;;;8.90;99.90;;;;;;4962009;28;20051;-66
2021/12/14 10:27:43;;;;;;;40.83;32.20;;;8.90;99.90;;;;;;4941336;28;20051;-66
2021/12/14 10:30:15;;;;;;;42.85;33.72;;;8.90;99.90;;;;;;4963761;28;20101;-66
2021/12/14 10:32:41;;;;;;;45.38;33.30;;;9.00;99.90;;;;;;4956790;28;20079;-66
2021/12/14 10:35:14;;;;;;;42.45;32.65;;;9.00;99.90;;;;;;4964815;28;20087;-66
2021/12/14 10:37:54;;;;;;;43.20;31.75;;;8.90;99.90;;;;;;4959812;28;20063;-66
2021/12/14 10:43:21;;;;;;;44.22;32.28;;;8.90;99.90;;;;;;4950375;28;20545;-66
2021/12/14 10:45:49;;;;;;;49.30;33.53;;;8.90;99.90;;;;;;4963879;28;20101;-66
2021/12/14 10:48:17;;;;;;;51.45;34.25;;;8.90;99.90;;;;;;4956101;28;20038;-66
2021/12/14 10:50:43;;;;;;;51.70;34.42;;;8.80;99.90;;;;;;4959188;28;20109;-65
2021/12/14 10:53:10;;;;;;;48.05;34.38;;;8.80;99.90;;;;;;4960545;28;20084;-65
2021/12/14 10:55:46;;;;;;;50.75;34.78;;;8.80;99.90;;;;;;4957659;28;20344;-65
2021/12/14 10:58:15;;;;;;;54.28;35.55;;;8.80;99.90;;;;;;4943976;28;20055;-66
2021/12/14 11:00:48;;;;;;;47.80;32.80;;;8.80;99.90;;;;;;4957017;28;20039;-66
2021/12/14 11:03:36;;;;;;;50.65;34.28;;;8.80;99.90;;;;;;4961649;28;20440;-66
2021/12/14 11:06:12;;;;;;;40.83;31.70;;;8.80;99.90;;;;;;4950956;28;20102;-66
2021/12/14 11:09:00;;;;;;;46.22;33.25;;;8.70;99.90;;;;;;4960517;28;20052;-66
2021/12/14 11:11:37;;;;;;;50.28;34.03;;;8.80;99.90;;;;;;4959742;28;20078;-66
2021/12/14 11:14:08;;;;;;;45.63;31.80;;;8.80;99.90;;;;;;4956267;28;20034;-66
2021/12/14 11:19:41;;;;;;;52.50;33.05;;;8.80;99.90;;;;;;4957444;28;20062;-66
2021/12/14 11:22:17;;;;;;;49.70;33.67;;;8.80;99.90;;;;;;4961022;28;20522;-66
2021/12/14 11:24:47;;;;;;;44.67;31.67;;;8.90;99.90;;;;;;4955972;28;20070;-66
2021/12/14 11:27:19;;;;;;;49.78;33.95;;;8.90;99.90;;;;;;4962419;28;20055;-66
2021/12/14 11:29:45;;;;;;;47.28;32.28;;;8.90;99.90;;;;;;4956313;28;20038;-66
2021/12/14 11:32:22;;;;;;;48.83;32.08;;;9.00;99.90;;;;;;4954654;28;21097;-66
2021/12/14 11:34:49;;;;;;;44.60;32.40;;;9.00;99.90;;;;;;4962958;28;20053;-66
2021/12/14 11:37:21;;;;;;;47.22;31.73;;;9.00;99.90;;;;;;4955081;28;20067;-66
2021/12/14 11:39:52;;;;;;;41.33;28.52;;;9.00;99.90;;;;;;4956432;28;20613;-66
2021/12/14 11:42:20;;;;;;;42.97;30.88;;;9.00;99.90;;;;;;4955479;28;20406;-66
2021/12/14 11:45:04;;;;;;;41.15;29.45;;;9.00;99.90;;;;;;4963406;28;20097;-66
2021/12/14 11:50:11;;;;;;;40.15;29.15;;;9.00;99.90;;;;;;4955688;28;20539;-66
2021/12/14 11:52:52;;;;;;;;;;;9.00;99.90;;;;;;4960604;28;20058;-66
2021/12/14 11:55:24;;;;;;;39.28;26.05;;;8.90;99.90;;;;;;4961470;28;19921;-66
2021/12/14 11:58:06;;;;;;;40.15;27.48;;;8.90;99.90;;;;;;4959580;28;20047;-66
2021/12/14 12:00:34;;;;;;;34.80;25.02;;;9.00;99.90;;;;;;4966596;28;20488;-65
2021/12/14 12:03:37;;;;;;;35.38;24.67;;;9.00;99.90;;;;;;4961430;28;20051;-66
2021/12/14 12:06:13;;;;;;;37.95;26.25;;;9.00;99.90;;;;;;4969444;28;20126;-66
2021/12/14 12:11:41;;;;;;;34.15;24.70;;;9.00;99.90;;;;;;4958241;28;20057;-66
2021/12/14 12:14:29;;;;;;;40.35;24.50;;;9.00;99.90;;;;;;4960372;28;20039;-66
2021/12/14 12:17:21;;;;;;;35.03;23.98;;;9.10;99.90;;;;;;4955291;28;20895;-66
2021/12/14 12:20:28;;;;;;;34.25;23.98;;;9.00;99.90;;;;;;4959882;28;20431;-66
2021/12/14 12:22:56;;;;;;;35.35;24.27;;;9.00;99.90;;;;;;4904214;29;20078;-66
2021/12/14 12:25:37;;;;;;;40.38;24.33;;;9.00;99.90;;;;;;4951582;28;20109;-66
2021/12/14 12:28:10;;;;;;;37.60;23.20;;;9.00;99.90;;;;;;4954517;28;20455;-65
2021/12/14 12:30:40;;;;;;;35.97;24.17;;;9.00;99.90;;;;;;4948865;28;20047;-66
2021/12/14 12:33:14;;;;;;;35.80;22.88;;;9.00;99.90;;;;;;4945260;28;20077;-66
2021/12/14 12:35:49;;;;;;;35.38;24.02;;;9.00;99.90;;;;;;4961694;28;20089;-66
2021/12/14 12:38:37;;;;;;;34.53;23.42;;;9.00;99.90;;;;;;4957897;28;20575;-66
2021/12/14 12:41:09;;;;;;;31.15;22.05;;;9.10;99.90;;;;;;4967170;28;20511;-66
2021/12/14 12:43:41;;;;;;;33.55;22.80;;;9.00;99.90;;;;;;4958374;28;20039;-66
2021/12/14 12:46:32;;;;;;;34.47;22.65;;;9.00;99.90;;;;;;4964856;28;20491;-66
2021/12/14 12:49:31;;;;;;;35.78;24.30;;;9.00;99.90;;;;;;4933724;28;20083;-66
2021/12/14 12:52:16;;;;;;;40.45;24.33;;;9.00;99.90;;;;;;4959038;28;20556;-66
2021/12/14 12:55:02;;;;;;;37.90;25.13;;;9.00;99.90;;;;;;4941987;28;20054;-66
2021/12/14 12:57:34;;;;;;;38.05;24.88;;;9.00;99.90;;;;;;4964778;28;20066;-66
2021/12/14 13:00:10;;;;;;;43.97;26.33;;;9.00;99.90;;;;;;4961848;28;20119;-66
2021/12/14 13:02:53;;;;;;;40.40;26.85;;;9.10;99.90;;;;;;4961859;28;20043;-66
2021/12/14 13:05:30;;;;;;;42.75;28.20;;;9.10;99.90;;;;;;4957077;28;20043;-66
2021/12/14 13:08:33;;;;;;;43.67;26.42;;;9.10;99.90;;;;;;4962472;28;20100;-66
2021/12/14 13:11:16;;;;;;;41.00;25.58;;;9.10;99.90;;;;;;4941620;28;20039;-66
2021/12/14 13:13:57;;;;;;;35.90;25.60;;;9.10;99.90;;;;;;4965163;28;20055;-66
2021/12/14 13:16:24;;;;;;;41.35;26.83;;;9.20;99.90;;;;;;4959693;28;20043;-66
2021/12/14 13:19:11;;;;;;;44.78;26.42;;;9.10;99.90;;;;;;4947327;28;20637;-66
2021/12/14 13:21:42;;;;;;;43.05;28.40;;;9.20;99.90;;;;;;4957841;28;20059;-66
2021/12/14 13:24:22;;;;;;;42.92;26.98;;;9.20;99.90;;;;;;4964084;28;20122;-66
2021/12/14 13:26:56;;;;;;;43.30;27.75;;;9.20;99.90;;;;;;4965433;28;20046;-66
2021/12/14 13:29:50;;;;;;;46.17;28.42;;;9.20;99.90;;;;;;4959677;28;20097;-66
2021/12/14 13:32:30;;;;;;;40.10;26.38;;;9.20;99.90;;;;;;4959353;28;20043;-66
2021/12/14 13:35:19;;;;;;;41.25;26.92;;;9.20;99.90;;;;;;4954105;28;20122;-66
2021/12/14 13:37:46;;;;;;;41.17;25.95;;;9.30;99.90;;;;;;4947677;28;20073;-66
2021/12/14 13:40:37;;;;;;;41.22;26.05;;;9.20;99.90;;;;;;4953115;28;20046;-66
2021/12/14 13:43:11;;;;;;;48.90;27.50;;;9.20;99.90;;;;;;4960261;28;20121;-66
2021/12/14 13:45:41;;;;;;;45.45;26.98;;;9.20;99.90;;;;;;4958117;28;20412;-66
2021/12/14 13:48:10;;;;;;;43.60;26.52;;;9.20;99.90;;;;;;4961618;28;20106;-66